createdAt,value
2018-10-06T00:00:12.212Z,22.23
2018-10-06T00:05:15.644Z,22.23
2018-10-06T00:10:19.072Z,22.23
2018-10-06T00:15:22.528Z,22.24
2018-10-06T00:20:25.972Z,22.23
2018-10-06T00:25:29.389Z,22.22
2018-10-06T00:30:32.812Z,22.23
2018-10-06T00:35:36.257Z,22.20
2018-10-06T00:40:39.697Z,22.23
2018-10-06T00:45:43.114Z,22.22
2018-10-06T00:50:46.533Z,22.20
2018-10-06T00:55:49.959Z,22.20
2018-10-06T01:00:53.384Z,22.19
2018-10-06T01:05:56.800Z,22.18
2018-10-06T01:11:00.222Z,22.18
2018-10-06T01:16:03.656Z,22.18
2018-10-06T01:21:07.185Z,22.17
2018-10-06T01:26:10.606Z,22.15
2018-10-06T01:31:14.069Z,22.15
2018-10-06T01:36:17.488Z,22.13
2018-10-06T01:41:20.930Z,22.12
2018-10-06T01:46:24.352Z,22.11
2018-10-06T01:51:27.845Z,22.11
2018-10-06T01:56:31.262Z,22.09
2018-10-06T02:01:34.677Z,22.06
2018-10-06T02:06:38.134Z,22.05
2018-10-06T02:11:41.541Z,22.03
2018-10-06T02:16:45.049Z,22.00
2018-10-06T02:21:48.526Z,21.98
2018-10-06T02:26:51.951Z,21.95
2018-10-06T02:31:55.416Z,21.94
2018-10-06T02:36:59.003Z,21.91
2018-10-06T02:42:02.365Z,21.87
2018-10-06T02:47:05.876Z,21.86
2018-10-06T02:52:09.327Z,21.84
2018-10-06T02:57:12.777Z,21.83
2018-10-06T03:02:16.211Z,21.82
2018-10-06T03:07:19.637Z,21.79
2018-10-06T03:12:23.088Z,21.76
2018-10-06T03:17:26.505Z,21.75
2018-10-06T03:22:29.965Z,21.72
2018-10-06T03:27:33.387Z,21.70
2018-10-06T03:37:39.393Z,21.68
2018-10-06T03:42:42.836Z,21.68
2018-10-06T03:47:46.272Z,21.64
2018-10-06T03:52:49.736Z,21.67
2018-10-06T03:57:53.141Z,21.64
2018-10-06T04:02:56.541Z,21.63
2018-10-06T04:07:59.950Z,21.62
2018-10-06T04:13:03.370Z,21.61
2018-10-06T04:18:07.091Z,21.58
2018-10-06T04:23:10.506Z,21.60
2018-10-06T04:28:14.025Z,21.59
2018-10-06T04:33:17.426Z,21.60
2018-10-06T04:38:21.549Z,21.64
2018-10-06T04:43:25.043Z,21.67
2018-10-06T04:48:28.648Z,21.72
2018-10-06T04:53:32.125Z,21.73
2018-10-06T04:58:35.599Z,21.75
2018-10-06T05:03:39.047Z,21.77
2018-10-06T05:08:42.489Z,21.80
2018-10-06T05:13:46.188Z,21.81
2018-10-06T05:18:49.746Z,21.82
2018-10-06T05:23:53.170Z,21.83
2018-10-06T05:28:56.604Z,21.85
2018-10-06T05:34:00.111Z,21.85
2018-10-06T05:39:04.205Z,21.86
2018-10-06T05:44:07.654Z,21.87
2018-10-06T05:49:11.721Z,21.88
2018-10-06T05:54:16.064Z,21.88
2018-10-06T05:59:19.497Z,21.90
2018-10-06T06:04:23.012Z,21.91
2018-10-06T06:09:26.502Z,21.91
2018-10-06T06:14:29.969Z,21.93
2018-10-06T06:19:33.603Z,21.92
2018-10-06T06:24:37.047Z,21.93
2018-10-06T06:29:40.569Z,21.93
2018-10-06T06:34:44.085Z,21.94
2018-10-06T06:39:47.535Z,21.95
2018-10-06T06:44:50.975Z,21.97
2018-10-06T06:49:54.387Z,21.99
2018-10-06T06:54:57.833Z,21.99
2018-10-06T07:00:01.321Z,22.02
2018-10-06T07:05:05.328Z,21.74
2018-10-06T07:10:08.783Z,20.62
2018-10-06T07:15:12.222Z,20.56
2018-10-06T07:20:15.744Z,20.48
2018-10-06T07:25:19.317Z,20.29
2018-10-06T07:30:22.824Z,20.39
2018-10-06T07:35:26.311Z,20.07
2018-10-06T07:40:29.815Z,19.66
2018-10-06T07:45:33.271Z,20.52
2018-10-06T07:50:36.720Z,20.21
2018-10-06T07:55:40.337Z,20.32
2018-10-06T08:00:43.928Z,20.58
2018-10-06T08:05:48.097Z,20.75
2018-10-06T08:10:51.597Z,20.74
2018-10-06T08:15:55.065Z,20.80
2018-10-06T08:20:59.228Z,20.32
2018-10-06T08:26:03.203Z,20.64
2018-10-06T08:31:06.996Z,20.41
2018-10-06T08:36:10.432Z,20.44
2018-10-06T08:41:14.215Z,20.57
2018-10-06T08:46:17.922Z,19.99
2018-10-06T08:51:21.357Z,20.33
2018-10-06T08:56:25.313Z,20.16
2018-10-06T09:01:28.730Z,20.18
2018-10-06T09:06:32.409Z,20.45
2018-10-06T09:11:36.252Z,20.49
2018-10-06T09:16:39.716Z,20.70
2018-10-06T09:21:43.161Z,20.43
2018-10-06T09:26:46.742Z,20.50
2018-10-06T09:31:50.165Z,20.55
2018-10-06T09:36:53.607Z,20.61
2018-10-06T09:41:57.155Z,20.83
2018-10-06T09:47:00.533Z,20.93
2018-10-06T09:52:03.991Z,20.85
2018-10-06T09:57:07.528Z,20.82
2018-10-06T10:02:15.107Z,20.89
2018-10-06T10:07:18.576Z,20.98
2018-10-06T10:12:22.028Z,21.02
2018-10-06T10:17:25.711Z,21.03
2018-10-06T10:22:29.269Z,21.06
2018-10-06T10:27:32.618Z,21.07
2018-10-06T10:32:36.176Z,21.11
2018-10-06T10:37:39.717Z,21.16
2018-10-06T10:42:43.275Z,21.20
2018-10-06T10:47:46.693Z,21.27
2018-10-06T10:52:50.178Z,21.36
2018-10-06T10:57:53.761Z,21.40
2018-10-06T11:02:57.194Z,21.36
2018-10-06T11:08:00.629Z,21.30
2018-10-06T11:13:04.218Z,21.43
2018-10-06T11:18:07.673Z,21.41
2018-10-06T11:23:11.104Z,21.43
2018-10-06T11:28:14.709Z,21.35
2018-10-06T11:33:18.134Z,21.38
2018-10-06T11:38:21.613Z,21.36
2018-10-06T11:43:25.063Z,21.37
2018-10-06T11:48:28.512Z,21.37
2018-10-06T11:53:32.110Z,21.37
2018-10-06T11:58:35.597Z,21.41
2018-10-06T12:03:39.093Z,21.43
2018-10-06T12:08:42.545Z,21.47
2018-10-06T12:13:46.114Z,21.43
2018-10-06T12:18:49.561Z,21.47
2018-10-06T12:23:52.999Z,21.52
2018-10-06T12:28:56.452Z,21.54
2018-10-06T12:33:59.928Z,21.53
2018-10-06T12:39:04.098Z,21.51
2018-10-06T12:44:07.529Z,21.48
2018-10-06T12:49:10.981Z,21.51
2018-10-06T12:54:14.639Z,21.47
2018-10-06T12:59:18.082Z,21.50
2018-10-06T13:04:21.527Z,21.52
2018-10-06T13:09:24.968Z,21.54
2018-10-06T13:14:28.414Z,21.49
2018-10-06T13:19:31.922Z,21.50
2018-10-06T13:24:35.349Z,21.50
2018-10-06T13:29:38.792Z,21.54
2018-10-06T13:34:42.237Z,21.59
2018-10-06T13:39:45.684Z,21.67
2018-10-06T13:44:49.388Z,21.68
2018-10-06T13:49:53.014Z,21.63
2018-10-06T13:54:56.469Z,21.61
2018-10-06T13:59:59.937Z,21.59
2018-10-06T14:05:03.574Z,21.60
2018-10-06T14:10:07.080Z,21.59
2018-10-06T14:15:10.553Z,21.60
2018-10-06T14:20:14.020Z,21.60
2018-10-06T14:25:17.466Z,21.64
2018-10-06T14:30:20.906Z,21.62
2018-10-06T14:35:24.614Z,21.64
2018-10-06T14:40:28.065Z,21.58
2018-10-06T14:45:31.592Z,21.62
2018-10-06T14:50:35.059Z,21.67
2018-10-06T14:55:38.533Z,21.70
2018-10-06T15:00:44.657Z,21.70
2018-10-06T15:05:48.106Z,21.71
2018-10-06T15:10:51.535Z,21.77
2018-10-06T15:15:55.524Z,21.85
2018-10-06T15:20:59.203Z,21.74
2018-10-06T15:26:03.007Z,21.73
2018-10-06T15:31:06.501Z,21.74
2018-10-06T15:36:09.988Z,21.76
2018-10-06T15:41:14.345Z,21.76
2018-10-06T15:46:17.781Z,21.71
2018-10-06T15:51:22.202Z,21.69
2018-10-06T15:56:25.805Z,21.71
2018-10-06T16:01:31.616Z,21.64
2018-10-06T16:06:35.077Z,21.68
2018-10-06T16:11:38.569Z,21.67
2018-10-06T16:16:43.135Z,21.64
2018-10-06T16:21:46.592Z,21.62
2018-10-06T16:26:50.031Z,21.60
2018-10-06T16:31:53.500Z,21.64
2018-10-06T16:36:56.979Z,21.63
2018-10-06T16:42:00.417Z,21.61
2018-10-06T16:47:03.846Z,21.60
2018-10-06T16:52:07.277Z,21.57
2018-10-06T16:57:10.785Z,21.37
2018-10-06T17:02:14.255Z,21.24
2018-10-06T17:07:17.701Z,21.33
2018-10-06T17:12:21.208Z,21.46
2018-10-06T17:17:24.598Z,21.49
2018-10-06T17:22:28.097Z,21.51
2018-10-06T17:27:31.589Z,21.52
2018-10-06T17:32:35.073Z,21.50
2018-10-06T17:37:38.501Z,21.46
2018-10-06T17:42:41.994Z,21.41
2018-10-06T17:47:45.443Z,21.41
2018-10-06T17:52:48.880Z,21.47
2018-10-06T17:57:52.423Z,21.46
2018-10-06T18:02:56.083Z,21.46
2018-10-06T18:07:59.505Z,21.44
2018-10-06T18:13:03.055Z,21.44
2018-10-06T18:18:06.873Z,21.45
2018-10-06T18:23:10.328Z,21.42
2018-10-06T18:28:14.034Z,21.43
2018-10-06T18:33:17.499Z,21.48
2018-10-06T18:38:21.125Z,21.47
2018-10-06T18:43:24.973Z,21.51
2018-10-06T18:48:28.533Z,21.53
2018-10-06T18:53:32.160Z,21.57
2018-10-06T18:58:35.658Z,21.60
2018-10-06T19:03:39.305Z,21.65
2018-10-06T19:08:42.599Z,21.64
2018-10-06T19:13:46.051Z,21.66
2018-10-06T19:18:49.496Z,21.69
2018-10-06T19:23:52.976Z,21.68
2018-10-06T19:28:56.459Z,21.77
2018-10-06T19:33:59.956Z,21.74
2018-10-06T19:39:03.553Z,21.81
2018-10-06T19:44:06.989Z,21.79
2018-10-06T19:49:10.417Z,21.80
2018-10-06T19:54:13.869Z,21.85
2018-10-06T19:59:17.329Z,21.79
2018-10-06T20:04:20.877Z,21.84
2018-10-06T20:09:24.332Z,21.93
2018-10-06T20:14:27.787Z,21.93
2018-10-06T20:19:31.252Z,22.01
2018-10-06T20:24:34.787Z,22.04
2018-10-06T20:29:38.437Z,22.05
2018-10-06T20:34:41.908Z,22.07
2018-10-06T20:39:45.433Z,22.05
2018-10-06T20:44:48.931Z,22.04
2018-10-06T20:49:52.394Z,22.04
2018-10-06T20:54:55.856Z,22.06
2018-10-06T20:59:59.311Z,22.07
2018-10-06T21:05:02.805Z,22.05
2018-10-06T21:10:06.241Z,22.09
2018-10-06T21:15:09.711Z,22.10
2018-10-06T21:20:13.191Z,22.07
2018-10-06T21:25:16.691Z,22.13
2018-10-06T21:30:20.134Z,22.14
2018-10-06T21:35:23.581Z,22.12
2018-10-06T21:40:27.072Z,22.15
2018-10-06T21:45:30.553Z,22.12
2018-10-06T21:50:34.005Z,22.09
2018-10-06T21:55:37.442Z,22.13
2018-10-06T22:00:40.952Z,22.11
2018-10-06T22:05:44.392Z,22.15
2018-10-06T22:10:47.872Z,22.16
2018-10-06T22:15:51.344Z,22.17
2018-10-06T22:20:54.825Z,22.17
2018-10-06T22:25:58.283Z,22.16
2018-10-06T22:31:01.715Z,22.17
2018-10-06T22:36:05.164Z,22.16
2018-10-06T22:41:08.639Z,22.16
2018-10-06T22:46:12.109Z,22.17
2018-10-06T22:51:15.595Z,22.17
2018-10-06T22:56:19.030Z,22.17
2018-10-06T23:01:22.475Z,22.13
2018-10-06T23:06:26.038Z,22.15
2018-10-06T23:11:29.505Z,22.17
2018-10-06T23:16:32.960Z,22.14
2018-10-06T23:21:36.402Z,22.14
2018-10-06T23:26:39.907Z,22.13
2018-10-06T23:31:43.384Z,22.13
2018-10-06T23:36:46.938Z,22.12
2018-10-06T23:41:50.435Z,22.14
2018-10-06T23:46:53.925Z,22.08
2018-10-06T23:51:57.419Z,22.14
2018-10-06T23:57:00.894Z,22.12
